Time;durP1;ratioP1;P1;durP2;ratioP2;P2;SDS_P1;SDS_P2;PMS_P1;PMS_P2;Temp;Humidity;BMP_temperature;BMP_pressure;BME280_temperature;BME280_humidity;BME280_pressure;Samples;Min_cycle;Max_cycle;Signal;HPM_P1;HPM_P2
2023/12/25 00:03:59;;;;;;;0.98;0.88;;;16.80;55.10;;;;;;6216713;22;20285;-85
2023/12/25 00:06:25;;;;;;;1.10;1.00;;;16.80;55.10;;;;;;6115586;23;20157;-87
2023/12/25 00:08:54;;;;;;;1.10;1.00;;;16.80;55.10;;;;;;6163540;23;20148;-86
2023/12/25 00:11:20;;;;;;;0.75;0.75;;;16.80;55.10;;;;;;6164725;23;20138;-86
2023/12/25 00:13:57;;;;;;;;;;;;;;;;;;;;;
2023/12/25 00:16:15;;;;;;;1.35;0.90;;;16.90;55.10;;;;;;6213953;22;20224;-85
2023/12/25 00:18:42;;;;;;;1.23;0.88;;;16.80;55.10;;;;;;6140907;23;20150;-86
2023/12/25 00:21:09;;;;;;;0.85;0.82;;;16.80;55.00;;;;;;6091083;23;20150;-86
2023/12/25 00:23:36;;;;;;;0.90;0.80;;;16.80;55.00;;;;;;6113496;23;20161;-86
2023/12/25 00:26:02;;;;;;;1.00;0.90;;;16.80;55.10;;;;;;6112183;23;20158;-86
2023/12/25 00:28:28;;;;;;;1.10;0.93;;;16.90;55.10;;;;;;6189354;23;20612;-85
2023/12/25 00:33:20;;;;;;;1.08;0.98;;;16.80;55.00;;;;;;6183919;23;20514;-86
2023/12/25 00:35:47;;;;;;;0.82;0.80;;;16.80;55.10;;;;;;6135007;23;20254;-85
2023/12/25 00:38:13;;;;;;;1.27;0.90;;;16.80;55.00;;;;;;6158590;23;20475;-85
2023/12/25 00:40:39;;;;;;;1.02;0.90;;;16.90;55.10;;;;;;6184682;23;20142;-86
2023/12/25 00:43:05;;;;;;;1.00;0.90;;;16.80;55.10;;;;;;6159790;23;20192;-85
2023/12/25 00:45:31;;;;;;;0.90;0.90;;;16.80;55.10;;;;;;6159548;23;20142;-85
2023/12/25 00:47:57;;;;;;;0.82;0.80;;;16.80;55.10;;;;;;6187510;23;20189;-87
2023/12/25 00:50:22;;;;;;;1.23;1.00;;;16.90;55.10;;;;;;6162371;23;20589;-86
2023/12/25 00:52:48;;;;;;;1.15;1.05;;;16.80;55.10;;;;;;6135713;23;20143;-85
2023/12/25 00:55:16;;;;;;;0.80;0.80;;;16.90;55.80;;;;;;6187182;23;20163;-86
2023/12/25 00:57:42;;;;;;;1.08;0.82;;;16.80;55.10;;;;;;6110180;23;20161;-85
2023/12/25 01:00:09;;;;;;;0.70;0.70;;;16.80;55.10;;;;;;6182952;23;20154;-85
2023/12/25 01:02:36;;;;;;;1.30;1.13;;;16.80;55.10;;;;;;6183576;23;20555;-86
2023/12/25 01:05:03;;;;;;;1.10;1.00;;;16.80;55.10;;;;;;6133764;23;20254;-85
2023/12/25 01:07:28;;;;;;;0.80;0.80;;;16.90;55.10;;;;;;6156446;23;20285;-86
2023/12/25 01:09:54;;;;;;;0.77;0.75;;;16.80;55.10;;;;;;6108948;23;20553;-86
2023/12/25 01:12:20;;;;;;;1.00;0.85;;;16.80;55.10;;;;;;6184263;23;20161;-85
2023/12/25 01:14:46;;;;;;;1.10;1.00;;;16.80;55.10;;;;;;6159132;23;20206;-85
2023/12/25 01:17:13;;;;;;;1.10;0.90;;;16.80;55.10;;;;;;6159296;23;20139;-84
2023/12/25 01:19:40;;;;;;;1.00;0.90;;;16.90;55.10;;;;;;6107110;23;20155;-84
2023/12/25 01:22:07;;;;;;;1.10;1.00;;;16.80;55.00;;;;;;6190327;23;20209;-85
2023/12/25 01:24:33;;;;;;;1.20;1.10;;;16.80;55.10;;;;;;6113592;22;20154;-85
2023/12/25 01:27:00;;;;;;;1.10;1.00;;;16.70;55.10;;;;;;6189543;23;20137;-85
2023/12/25 01:29:26;;;;;;;0.80;0.80;;;16.80;55.20;;;;;;6136766;23;20157;-85
2023/12/25 01:31:52;;;;;;;1.00;0.90;;;16.80;55.20;;;;;;6163266;23;20202;-85
2023/12/25 01:34:18;;;;;;;1.00;0.90;;;16.80;55.80;;;;;;6138462;23;20231;-87
2023/12/25 01:36:44;;;;;;;0.90;0.90;;;16.80;55.10;;;;;;6188157;23;20130;-85
2023/12/25 01:39:12;;;;;;;1.00;0.90;;;16.70;55.10;;;;;;6215454;23;20142;-86
2023/12/25 01:41:40;;;;;;;1.00;0.80;;;16.80;55.10;;;;;;6089759;23;20593;-85
2023/12/25 01:44:08;;;;;;;1.40;1.27;;;16.70;55.10;;;;;;6112775;23;20168;-86
2023/12/25 01:46:36;;;;;;;1.08;1.00;;;16.80;55.10;;;;;;6090669;23;20154;-85
2023/12/25 01:49:04;;;;;;;0.80;0.80;;;16.80;55.10;;;;;;6114302;23;20160;-85
2023/12/25 01:51:31;;;;;;;0.80;0.80;;;16.80;55.20;;;;;;6114502;23;20154;-86
2023/12/25 01:53:58;;;;;;;0.90;0.82;;;16.80;55.10;;;;;;6139078;23;20230;-85
2023/12/25 01:56:23;;;;;;;1.10;0.98;;;16.80;55.10;;;;;;6112975;23;20150;-86
2023/12/25 01:58:50;;;;;;;1.33;0.85;;;16.80;55.00;;;;;;6163454;23;20140;-86
2023/12/25 02:01:16;;;;;;;0.90;0.90;;;16.80;55.10;;;;;;6088153;23;20237;-86
2023/12/25 02:03:42;;;;;;;0.80;0.70;;;16.80;55.10;;;;;;6163609;23;20224;-86
2023/12/25 02:06:08;;;;;;;0.82;0.77;;;16.80;55.10;;;;;;6163905;23;20134;-87
2023/12/25 02:08:35;;;;;;;1.05;0.90;;;16.80;55.10;;;;;;6138800;23;20173;-86
2023/12/25 02:11:03;;;;;;;1.00;0.90;;;16.80;55.00;;;;;;6136762;23;20244;-86
2023/12/25 02:13:29;;;;;;;0.90;0.90;;;16.80;55.10;;;;;;6112833;23;20157;-86
2023/12/25 02:15:55;;;;;;;1.05;0.93;;;16.80;55.00;;;;;;6163064;23;20154;-87
2023/12/25 02:18:23;;;;;;;1.10;1.00;;;16.80;55.10;;;;;;6138960;23;20574;-86
2023/12/25 02:20:50;;;;;;;1.30;1.00;;;16.80;55.10;;;;;;6113676;23;20180;-86
2023/12/25 02:23:17;;;;;;;1.05;0.82;;;16.80;55.10;;;;;;6138819;23;20157;-86
2023/12/25 02:25:57;;;;;;;1.10;0.90;;;16.70;55.20;;;;;;6113338;23;20150;-87
2023/12/25 02:28:23;;;;;;;1.10;1.00;;;16.80;55.10;;;;;;6188488;23;20153;-86
2023/12/25 02:30:51;;;;;;;0.98;0.90;;;16.80;55.10;;;;;;6133883;23;20534;-87
2023/12/25 02:33:17;;;;;;;0.80;0.80;;;16.80;55.20;;;;;;6159218;23;20181;-86
2023/12/25 02:35:42;;;;;;;1.02;0.90;;;16.80;55.10;;;;;;6159563;23;20563;-86
2023/12/25 02:38:08;;;;;;;1.00;0.90;;;16.80;55.10;;;;;;6161141;23;20145;-86
2023/12/25 02:40:41;;;;;;;0.80;0.80;;;16.80;55.10;;;;;;6175341;23;20617;-85
2023/12/25 02:43:12;;;;;;;1.08;0.98;;;16.80;55.00;;;;;;6188956;23;20135;-86
2023/12/25 02:45:41;;;;;;;1.20;1.00;;;16.80;55.00;;;;;;6114216;23;20206;-85
2023/12/25 02:48:30;;;;;;;1.33;1.05;;;16.80;55.10;;;;;;6113095;23;20159;-86
2023/12/25 02:51:00;;;;;;;0.95;0.88;;;16.80;55.20;;;;;;6187782;23;20182;-85
2023/12/25 02:53:27;;;;;;;0.80;0.77;;;16.80;55.10;;;;;;6133516;23;20154;-84
2023/12/25 02:55:53;;;;;;;1.15;0.90;;;16.80;55.00;;;;;;6109479;23;20596;-85
2023/12/25 02:58:19;;;;;;;1.08;0.98;;;16.80;55.10;;;;;;6110263;23;20190;-86
2023/12/25 03:00:44;;;;;;;1.02;0.93;;;16.90;55.10;;;;;;6133800;23;20135;-85
2023/12/25 03:03:10;;;;;;;1.02;0.88;;;16.80;55.10;;;;;;6109606;23;20147;-85
2023/12/25 03:05:36;;;;;;;1.25;0.90;;;16.70;55.10;;;;;;6135798;23;20189;-86
2023/12/25 03:08:04;;;;;;;0.70;0.70;;;16.70;54.90;;;;;;6136172;23;20610;-85
2023/12/25 03:10:31;;;;;;;1.33;0.93;;;16.80;55.10;;;;;;6109437;23;20234;-85
2023/12/25 03:12:58;;;;;;;1.10;0.95;;;16.80;55.00;;;;;;6112282;23;20238;-86
2023/12/25 03:15:24;;;;;;;1.10;1.00;;;16.80;55.10;;;;;;6110618;23;20198;-86
2023/12/25 03:17:57;;;;;;;1.20;0.95;;;16.80;55.20;;;;;;6140900;23;20187;-84
2023/12/25 03:20:27;;;;;;;1.00;0.90;;;16.80;55.10;;;;;;6189589;23;20142;-85
2023/12/25 03:25:20;;;;;;;1.00;0.90;;;16.80;55.20;;;;;;6214911;22;20818;-84
2023/12/25 03:27:45;;;;;;;1.10;1.00;;;16.80;55.20;;;;;;6105833;23;20223;-84
2023/12/25 03:30:12;;;;;;;1.02;0.90;;;16.80;55.20;;;;;;6129653;23;20166;-85
2023/12/25 03:32:39;;;;;;;1.15;0.85;;;16.80;55.10;;;;;;6104156;23;20158;-85
2023/12/25 03:35:05;;;;;;;0.80;0.80;;;16.80;55.10;;;;;;6129417;23;20198;-85
2023/12/25 03:37:31;;;;;;;0.90;0.90;;;16.80;55.10;;;;;;6129589;23;20144;-86
2023/12/25 03:39:58;;;;;;;0.98;0.88;;;16.70;55.00;;;;;;6129976;23;20143;-85
2023/12/25 03:42:25;;;;;;;0.85;0.82;;;16.80;55.10;;;;;;6128521;23;20151;-85
2023/12/25 03:44:52;;;;;;;0.88;0.80;;;16.80;55.10;;;;;;6128385;23;20162;-84
2023/12/25 03:47:20;;;;;;;0.90;0.90;;;16.80;55.20;;;;;;6153693;23;20206;-85
2023/12/25 03:52:14;;;;;;;0.80;0.80;;;16.80;55.00;;;;;;6214749;22;20209;-85
2023/12/25 03:54:39;;;;;;;1.10;0.98;;;16.80;55.00;;;;;;6189379;23;20897;-85
2023/12/25 03:57:06;;;;;;;1.17;1.08;;;16.80;55.10;;;;;;6163936;23;20269;-86
2023/12/25 03:59:32;;;;;;;0.88;0.80;;;16.80;55.10;;;;;;6139781;23;20139;-85
2023/12/25 04:01:58;;;;;;;1.00;0.90;;;16.70;55.20;;;;;;6152385;23;20249;-83
2023/12/25 04:04:26;;;;;;;1.08;0.90;;;16.80;55.30;;;;;;6154334;23;20585;-87
2023/12/25 04:06:54;;;;;;;1.25;1.05;;;16.80;55.10;;;;;;6130115;23;20136;-86
2023/12/25 04:09:20;;;;;;;0.88;0.85;;;16.80;55.10;;;;;;6103492;23;20163;-85
2023/12/25 04:11:46;;;;;;;1.08;0.98;;;16.70;55.10;;;;;;6129022;23;20132;-86
2023/12/25 04:14:11;;;;;;;0.88;0.80;;;16.80;55.20;;;;;;6129124;23;20595;-86
2023/12/25 04:16:37;;;;;;;0.70;0.70;;;16.70;55.10;;;;;;6153449;23;20132;-85
2023/12/25 04:19:03;;;;;;;0.93;0.82;;;16.80;55.10;;;;;;6129378;23;20136;-84
2023/12/25 04:21:31;;;;;;;1.00;0.90;;;16.70;55.10;;;;;;6129697;23;20198;-85
2023/12/25 04:23:57;;;;;;;0.90;0.90;;;16.80;55.20;;;;;;6129003;23;20127;-85
2023/12/25 04:26:23;;;;;;;0.82;0.80;;;16.80;55.20;;;;;;6104655;23;20198;-85
2023/12/25 04:28:50;;;;;;;0.80;0.70;;;16.70;55.10;;;;;;6103932;23;20221;-86
2023/12/25 04:31:16;;;;;;;1.20;1.10;;;16.70;55.10;;;;;;6129917;23;20136;-85
2023/12/25 04:33:45;;;;;;;1.13;0.90;;;16.70;55.10;;;;;;6153764;23;20163;-86
2023/12/25 04:36:14;;;;;;;1.35;0.85;;;16.70;55.10;;;;;;6080048;23;20475;-85
2023/12/25 04:38:40;;;;;;;0.90;0.90;;;16.70;55.10;;;;;;6103914;23;20162;-86
2023/12/25 04:41:06;;;;;;;1.00;0.90;;;16.70;55.10;;;;;;6153737;23;20218;-85
2023/12/25 04:43:32;;;;;;;1.52;0.90;;;16.70;55.20;;;;;;6104568;23;20554;-85
2023/12/25 04:45:58;;;;;;;0.93;0.85;;;16.70;55.10;;;;;;6133868;23;20209;-86
2023/12/25 04:48:23;;;;;;;1.00;0.80;;;16.70;55.20;;;;;;6133823;23;20237;-86
2023/12/25 04:50:49;;;;;;;1.00;0.90;;;16.70;55.10;;;;;;6109013;23;20146;-85
2023/12/25 04:53:18;;;;;;;0.60;0.60;;;16.70;55.20;;;;;;6133744;23;20222;-88
2023/12/25 04:55:44;;;;;;;0.77;0.77;;;16.80;55.10;;;;;;6134315;23;20162;-85
2023/12/25 04:58:10;;;;;;;1.00;0.90;;;16.80;55.00;;;;;;6158879;23;20435;-86
2023/12/25 05:00:37;;;;;;;1.00;0.90;;;16.80;55.10;;;;;;6157618;23;20181;-87
2023/12/25 05:03:03;;;;;;;1.15;0.98;;;16.80;55.10;;;;;;6109114;23;20154;-85
2023/12/25 05:05:29;;;;;;;1.25;0.88;;;16.70;55.10;;;;;;6108984;23;20550;-84
2023/12/25 05:07:55;;;;;;;1.05;0.90;;;16.70;55.10;;;;;;6157814;23;20810;-85
2023/12/25 05:10:21;;;;;;;0.80;0.80;;;16.80;55.00;;;;;;6133411;23;20477;-86
2023/12/25 05:12:47;;;;;;;1.35;1.10;;;16.80;55.00;;;;;;6157965;23;20131;-86
2023/12/25 05:15:12;;;;;;;1.05;0.95;;;16.80;55.10;;;;;;6109575;23;20177;-86
2023/12/25 05:17:39;;;;;;;0.90;0.85;;;16.70;55.10;;;;;;6134450;23;20443;-85
2023/12/25 05:20:07;;;;;;;0.95;0.80;;;16.80;55.10;;;;;;6184955;23;20225;-86
2023/12/25 05:22:32;;;;;;;0.80;0.80;;;16.80;55.10;;;;;;6157820;23;20147;-84
2023/12/25 05:25:01;;;;;;;1.02;0.93;;;16.70;55.10;;;;;;6157923;23;20214;-86
2023/12/25 05:29:54;;;;;;;0.85;0.80;;;16.80;55.10;;;;;;6212831;23;20208;-86
2023/12/25 05:32:21;;;;;;;0.68;0.68;;;16.70;55.10;;;;;;6188251;23;20461;-85
2023/12/25 05:34:47;;;;;;;0.70;0.70;;;16.70;55.20;;;;;;6162936;23;20169;-84
2023/12/25 05:37:13;;;;;;;1.20;1.10;;;16.70;55.10;;;;;;6162497;23;20220;-84
2023/12/25 05:39:42;;;;;;;0.90;0.90;;;16.80;55.10;;;;;;6163238;23;20138;-85
2023/12/25 05:42:10;;;;;;;1.05;0.95;;;16.80;55.10;;;;;;6137298;23;20157;-85
2023/12/25 05:44:38;;;;;;;1.00;0.85;;;16.80;55.10;;;;;;6113419;23;20601;-85
2023/12/25 05:47:04;;;;;;;1.05;0.80;;;16.70;55.20;;;;;;6137828;23;20154;-85
2023/12/25 05:49:30;;;;;;;0.75;0.75;;;16.70;55.20;;;;;;6138441;23;20272;-85
2023/12/25 05:51:58;;;;;;;0.70;0.70;;;16.70;55.10;;;;;;6139158;23;20146;-85
2023/12/25 05:54:24;;;;;;;0.98;0.90;;;16.70;55.10;;;;;;6112062;23;20184;-85
2023/12/25 05:56:52;;;;;;;1.00;0.90;;;16.70;55.10;;;;;;6187956;23;20530;-85
2023/12/25 05:59:20;;;;;;;0.80;0.80;;;16.70;55.10;;;;;;6114072;23;20160;-84
2023/12/25 06:01:48;;;;;;;0.90;0.90;;;16.70;55.00;;;;;;6089890;23;20158;-85
2023/12/25 06:04:13;;;;;;;1.20;0.90;;;16.70;55.10;;;;;;6112499;23;20161;-85
2023/12/25 06:06:42;;;;;;;1.08;0.95;;;16.70;55.10;;;;;;6188742;23;20168;-85
2023/12/25 06:09:10;;;;;;;0.73;0.73;;;16.70;55.10;;;;;;6137155;23;20238;-85
2023/12/25 06:11:36;;;;;;;1.05;0.90;;;16.70;55.10;;;;;;6138760;23;20146;-85
2023/12/25 06:14:03;;;;;;;1.50;0.90;;;16.70;55.20;;;;;;6189048;23;20573;-85
2023/12/25 06:16:29;;;;;;;0.95;0.82;;;16.70;55.20;;;;;;6139054;23;20214;-86
2023/12/25 06:18:55;;;;;;;0.82;0.82;;;16.70;55.20;;;;;;6163497;23;20558;-85
2023/12/25 06:21:20;;;;;;;1.05;0.95;;;16.80;55.20;;;;;;6138257;23;20168;-86
2023/12/25 06:23:46;;;;;;;0.98;0.88;;;16.70;55.20;;;;;;6137573;23;20150;-85
2023/12/25 06:26:12;;;;;;;1.00;0.80;;;16.70;55.20;;;;;;6162732;23;20138;-85
2023/12/25 06:31:08;;;;;;;1.15;1.05;;;16.70;55.20;;;;;;6184557;23;20642;-84
2023/12/25 06:33:33;;;;;;;1.08;0.90;;;16.70;55.10;;;;;;6109732;23;20158;-86
2023/12/25 06:35:59;;;;;;;1.02;0.93;;;16.70;55.10;;;;;;6153931;23;20288;-84
2023/12/25 06:38:25;;;;;;;1.02;0.93;;;16.70;55.20;;;;;;6183709;23;20233;-84
2023/12/25 06:40:51;;;;;;;1.02;1.00;;;16.60;55.10;;;;;;6160038;23;20521;-84
2023/12/25 06:43:18;;;;;;;0.80;0.80;;;16.70;55.10;;;;;;6161085;23;20158;-84
2023/12/25 06:45:46;;;;;;;0.82;0.80;;;16.60;55.10;;;;;;6109439;23;20542;-85
2023/12/25 06:48:13;;;;;;;0.80;0.80;;;16.70;55.20;;;;;;6135826;23;20155;-84
2023/12/25 06:50:41;;;;;;;0.68;0.68;;;16.70;55.20;;;;;;6087428;23;20181;-84
2023/12/25 06:53:10;;;;;;;0.70;0.70;;;16.70;55.20;;;;;;6111378;23;20161;-84
2023/12/25 06:55:37;;;;;;;1.20;0.95;;;16.70;55.20;;;;;;6111898;23;20186;-84
2023/12/25 06:58:05;;;;;;;0.90;0.90;;;16.70;55.20;;;;;;6135938;23;20155;-84
2023/12/25 07:00:33;;;;;;;0.82;0.82;;;16.70;55.10;;;;;;6134383;23;20277;-84
2023/12/25 07:03:01;;;;;;;1.00;0.88;;;16.70;55.20;;;;;;6109043;23;20292;-84
2023/12/25 07:05:29;;;;;;;1.10;0.95;;;16.70;55.10;;;;;;6111097;23;20162;-84
2023/12/25 07:07:54;;;;;;;0.85;0.80;;;16.70;55.10;;;;;;6133353;23;20210;-84
2023/12/25 07:10:23;;;;;;;1.10;0.88;;;16.70;55.20;;;;;;6185682;23;20138;-84
2023/12/25 07:12:48;;;;;;;0.70;0.70;;;16.70;55.20;;;;;;6109454;23;20150;-84
2023/12/25 07:15:16;;;;;;;0.77;0.77;;;16.70;55.10;;;;;;6158986;23;20189;-84
2023/12/25 07:17:42;;;;;;;0.75;0.75;;;16.70;54.90;;;;;;6086420;23;20209;-84
2023/12/25 07:20:08;;;;;;;1.00;0.90;;;16.80;54.70;;;;;;6183920;23;20147;-84
2023/12/25 07:22:34;;;;;;;0.85;0.80;;;16.80;54.80;;;;;;6160043;23;20135;-84
2023/12/25 07:25:05;;;;;;;1.17;0.73;;;16.80;54.60;;;;;;6134627;23;20511;-84
2023/12/25 07:27:33;;;;;;;1.02;0.77;;;16.80;54.60;;;;;;6162247;23;20174;-84
2023/12/25 07:29:59;;;;;;;0.70;0.70;;;16.90;54.70;;;;;;6186678;23;20186;-84
2023/12/25 07:32:28;;;;;;;1.00;0.90;;;16.90;54.50;;;;;;6185315;23;20134;-84
2023/12/25 07:34:54;;;;;;;1.00;0.90;;;17.00;54.40;;;;;;6135922;23;20654;-84
2023/12/25 07:37:22;;;;;;;1.08;0.85;;;16.90;54.60;;;;;;6160740;23;20155;-84
2023/12/25 07:39:50;;;;;;;0.80;0.77;;;16.90;54.30;;;;;;6111070;23;20229;-84
2023/12/25 07:42:17;;;;;;;0.70;0.60;;;16.80;54.30;;;;;;6111463;23;20201;-85
2023/12/25 07:44:47;;;;;;;0.95;0.80;;;16.90;54.40;;;;;;6086867;23;20638;-85
2023/12/25 07:47:15;;;;;;;0.90;0.80;;;16.90;54.40;;;;;;6136077;23;20211;-85
2023/12/25 07:49:42;;;;;;;0.55;0.55;;;16.90;54.40;;;;;;6135255;23;20590;-85
2023/12/25 07:52:10;;;;;;;0.93;0.82;;;16.90;54.10;;;;;;6135470;23;20162;-84
2023/12/25 07:54:36;;;;;;;0.77;0.77;;;16.90;53.90;;;;;;6134398;23;20269;-84
2023/12/25 07:57:02;;;;;;;0.75;0.70;;;17.00;54.20;;;;;;6133909;23;20177;-84
2023/12/25 07:59:36;;;;;;;1.02;0.93;;;16.90;54.10;;;;;;6183700;23;20282;-84
2023/12/25 08:02:11;;;;;;;0.80;0.77;;;17.00;54.00;;;;;;6109402;23;20158;-85
2023/12/25 08:04:45;;;;;;;0.80;0.80;;;17.00;54.20;;;;;;6134638;23;20158;-84
2023/12/25 08:07:19;;;;;;;0.80;0.80;;;17.00;53.90;;;;;;6086535;23;20150;-85
2023/12/25 08:09:53;;;;;;;0.85;0.80;;;16.90;54.80;;;;;;6110488;23;20150;-85
2023/12/25 08:12:26;;;;;;;1.17;0.90;;;17.00;54.10;;;;;;6135124;23;20151;-85
2023/12/25 08:15:00;;;;;;;0.70;0.70;;;16.90;54.10;;;;;;6135280;23;20187;-85
2023/12/25 08:17:26;;;;;;;0.95;0.88;;;16.90;54.20;;;;;;6087054;23;20177;-84
2023/12/25 08:19:52;;;;;;;0.70;0.70;;;16.90;54.40;;;;;;6134701;23;20150;-85
2023/12/25 08:22:17;;;;;;;0.60;0.60;;;16.90;54.20;;;;;;6134839;23;20544;-85
2023/12/25 08:24:55;;;;;;;;;;;;;;;;;;;;;
2023/12/25 08:29:52;;;;;;;0.70;0.70;;;16.90;54.30;;;;;;6217115;23;20202;-84
2023/12/25 08:32:18;;;;;;;0.82;0.80;;;17.00;54.10;;;;;;6156125;22;20213;-84
2023/12/25 08:34:47;;;;;;;0.52;0.52;;;16.90;54.20;;;;;;6172356;23;20166;-84
2023/12/25 08:37:15;;;;;;;0.77;0.65;;;16.90;53.90;;;;;;6147034;23;20197;-83
2023/12/25 08:39:43;;;;;;;0.70;0.70;;;17.00;54.20;;;;;;6119887;23;20158;-84
2023/12/25 08:42:12;;;;;;;1.00;0.80;;;16.90;54.10;;;;;;6140823;23;20165;-84
2023/12/25 08:44:37;;;;;;;0.82;0.80;;;16.90;54.40;;;;;;6090359;23;20455;-85
2023/12/25 08:47:03;;;;;;;0.80;0.80;;;17.00;54.20;;;;;;6186767;23;20131;-85
2023/12/25 08:49:32;;;;;;;0.70;0.70;;;16.90;54.40;;;;;;6186620;23;20566;-84
2023/12/25 08:52:00;;;;;;;0.80;0.80;;;16.90;54.10;;;;;;6134842;23;20150;-84
2023/12/25 08:54:28;;;;;;;0.70;0.70;;;16.90;54.10;;;;;;6159230;23;20269;-84
2023/12/25 08:56:57;;;;;;;0.85;0.80;;;16.90;54.30;;;;;;6159276;23;20165;-84
2023/12/25 08:59:25;;;;;;;0.82;0.82;;;16.90;54.40;;;;;;6110916;23;20217;-84
2023/12/25 09:01:53;;;;;;;0.80;0.73;;;17.00;54.20;;;;;;6158739;23;20158;-85
2023/12/25 09:04:20;;;;;;;1.13;0.77;;;16.90;54.40;;;;;;6134624;23;20161;-84
2023/12/25 09:06:48;;;;;;;0.95;0.77;;;16.90;54.40;;;;;;6109973;23;20186;-85
2023/12/25 09:09:15;;;;;;;0.60;0.60;;;16.80;54.40;;;;;;6134743;23;20583;-84
2023/12/25 09:11:41;;;;;;;0.75;0.73;;;16.90;54.40;;;;;;6115536;23;20207;-85
2023/12/25 09:14:08;;;;;;;0.80;0.73;;;16.90;54.40;;;;;;6160127;23;20205;-85
2023/12/25 09:16:36;;;;;;;0.50;0.50;;;16.90;54.40;;;;;;6134417;23;20154;-84
2023/12/25 09:19:04;;;;;;;1.10;0.90;;;16.90;54.40;;;;;;6110176;23;20151;-85
2023/12/25 09:21:36;;;;;;;1.08;0.90;;;16.90;54.10;;;;;;6110177;23;20154;-85
2023/12/25 09:24:02;;;;;;;0.80;0.70;;;16.90;54.40;;;;;;6086239;23;20166;-84
2023/12/25 09:26:28;;;;;;;0.70;0.70;;;17.00;54.30;;;;;;6158427;23;20463;-84
2023/12/25 09:28:53;;;;;;;0.98;0.80;;;16.90;54.00;;;;;;6163295;23;20210;-84
2023/12/25 09:31:21;;;;;;;0.70;0.70;;;16.90;54.20;;;;;;6109483;23;20673;-84
2023/12/25 09:33:48;;;;;;;0.60;0.60;;;17.00;54.30;;;;;;6085827;23;20190;-85
2023/12/25 09:36:14;;;;;;;0.77;0.77;;;16.90;54.40;;;;;;6108548;23;20213;-85
2023/12/25 09:38:46;;;;;;;0.68;0.60;;;16.90;54.00;;;;;;6185590;23;20131;-84
2023/12/25 09:41:19;;;;;;;1.00;0.70;;;16.90;54.00;;;;;;6085412;23;20177;-84
2023/12/25 09:43:51;;;;;;;0.63;0.63;;;16.90;54.20;;;;;;6061419;23;20213;-84
2023/12/25 09:46:17;;;;;;;0.65;0.60;;;16.90;54.10;;;;;;6060690;23;20296;-85
2023/12/25 09:48:42;;;;;;;0.70;0.60;;;16.90;54.10;;;;;;6159233;23;20578;-84
2023/12/25 09:51:13;;;;;;;0.80;0.80;;;16.90;54.20;;;;;;6159368;23;20162;-85
2023/12/25 09:53:44;;;;;;;0.75;0.70;;;16.90;54.40;;;;;;6061407;23;20583;-84
2023/12/25 09:56:14;;;;;;;0.68;0.65;;;16.90;54.20;;;;;;6062381;23;20530;-84
2023/12/25 09:58:40;;;;;;;0.63;0.55;;;16.90;54.10;;;;;;6085643;23;20193;-85
2023/12/25 10:01:06;;;;;;;0.70;0.70;;;17.00;54.00;;;;;;6133864;23;20135;-84
2023/12/25 10:03:47;;;;;;;0.73;0.65;;;16.90;54.40;;;;;;6158833;23;20157;-84
2023/12/25 10:06:27;;;;;;;0.47;0.47;;;16.80;54.10;;;;;;6109992;23;20158;-84
2023/12/25 10:09:06;;;;;;;0.95;0.75;;;16.90;54.80;;;;;;6085990;23;20286;-84
2023/12/25 10:11:46;;;;;;;0.65;0.63;;;16.90;54.30;;;;;;6085708;23;20150;-84
2023/12/25 10:16:50;;;;;;;0.80;0.73;;;17.00;53.90;;;;;;6217581;22;20509;-85
2023/12/25 10:19:22;;;;;;;0.60;0.60;;;16.90;54.00;;;;;;6191925;23;20126;-84
2023/12/25 10:22:01;;;;;;;1.00;0.90;;;16.90;54.10;;;;;;6139934;23;20236;-84
2023/12/25 10:24:38;;;;;;;0.80;0.80;;;16.90;53.90;;;;;;6117840;23;20207;-84
2023/12/25 10:27:09;;;;;;;0.70;0.70;;;16.90;54.20;;;;;;6116490;23;20150;-85
2023/12/25 10:29:45;;;;;;;0.73;0.60;;;16.90;54.20;;;;;;6139197;23;20766;-84
2023/12/25 10:32:25;;;;;;;0.60;0.60;;;16.90;54.00;;;;;;6138588;23;20215;-85
2023/12/25 10:35:07;;;;;;;0.65;0.63;;;16.90;54.00;;;;;;6113146;23;20232;-84
2023/12/25 10:37:45;;;;;;;0.73;0.70;;;16.90;54.30;;;;;;6096892;23;20149;-85
2023/12/25 10:40:31;;;;;;;0.52;0.52;;;16.90;54.10;;;;;;6115349;23;20177;-84
2023/12/25 10:42:57;;;;;;;0.93;0.70;;;16.90;54.10;;;;;;6138210;23;20153;-84
2023/12/25 10:45:24;;;;;;;0.60;0.60;;;17.00;53.80;;;;;;6137710;23;20181;-84
2023/12/25 10:47:52;;;;;;;0.50;0.50;;;17.00;53.80;;;;;;6188132;23;20628;-84
2023/12/25 10:50:20;;;;;;;0.73;0.70;;;17.00;53.80;;;;;;6163375;23;20585;-84
2023/12/25 10:52:50;;;;;;;0.65;0.65;;;17.00;54.10;;;;;;6139479;23;20631;-84
2023/12/25 10:55:36;;;;;;;0.60;0.60;;;16.90;54.10;;;;;;6113435;23;20498;-84
2023/12/25 10:58:05;;;;;;;0.60;0.60;;;17.00;54.10;;;;;;6166551;23;20126;-84
2023/12/25 11:00:31;;;;;;;0.50;0.50;;;17.00;54.00;;;;;;6189395;23;20217;-85
2023/12/25 11:03:01;;;;;;;0.60;0.60;;;16.90;54.00;;;;;;6137662;23;20157;-84
2023/12/25 11:05:31;;;;;;;0.82;0.65;;;16.90;54.00;;;;;;6188302;23;20144;-84
2023/12/25 11:08:00;;;;;;;0.77;0.77;;;17.00;53.80;;;;;;6114443;23;20216;-84
2023/12/25 11:10:29;;;;;;;0.60;0.60;;;17.00;53.80;;;;;;6138305;23;20631;-84
2023/12/25 11:12:57;;;;;;;0.65;0.65;;;17.00;53.90;;;;;;6114817;23;20154;-84
2023/12/25 11:15:24;;;;;;;0.52;0.52;;;17.00;53.70;;;;;;6114086;23;20568;-85
2023/12/25 11:17:52;;;;;;;0.68;0.68;;;17.00;54.50;;;;;;6188876;23;20146;-84
2023/12/25 11:20:21;;;;;;;0.80;0.80;;;17.00;53.70;;;;;;6138820;23;20151;-84
2023/12/25 11:22:49;;;;;;;1.63;0.90;;;17.10;53.90;;;;;;6114880;23;20154;-85
2023/12/25 11:25:19;;;;;;;0.60;0.60;;;17.00;53.60;;;;;;6139775;23;20150;-84
2023/12/25 11:27:56;;;;;;;0.63;0.63;;;17.10;53.90;;;;;;6140833;23;20581;-84
2023/12/25 11:30:25;;;;;;;0.70;0.70;;;17.00;53.90;;;;;;6140688;23;20150;-84
2023/12/25 11:32:51;;;;;;;0.80;0.80;;;17.00;53.90;;;;;;6139512;23;20157;-85
2023/12/25 11:35:28;;;;;;;0.60;0.60;;;17.00;53.80;;;;;;6141074;23;20185;-85
2023/12/25 11:38:27;;;;;;;0.60;0.50;;;17.00;53.80;;;;;;6199894;22;20212;-84
2023/12/25 11:40:59;;;;;;;0.50;0.50;;;17.00;53.80;;;;;;6188923;23;20135;-85
2023/12/25 11:43:29;;;;;;;0.60;0.60;;;17.00;53.80;;;;;;6092795;23;20173;-85
2023/12/25 11:45:55;;;;;;;0.50;0.50;;;17.00;53.70;;;;;;6138988;23;20204;-85
2023/12/25 11:48:26;;;;;;;0.80;0.70;;;17.00;54.20;;;;;;6165720;23;20135;-85
2023/12/25 11:51:18;;;;;;;0.60;0.60;;;17.00;53.70;;;;;;6139979;23;20150;-85
2023/12/25 11:53:50;;;;;;;0.55;0.55;;;17.00;53.80;;;;;;6119355;23;20153;-85
2023/12/25 11:56:18;;;;;;;0.70;0.70;;;17.00;53.90;;;;;;6115983;23;20154;-85
2023/12/25 11:58:45;;;;;;;0.60;0.60;;;17.00;54.10;;;;;;6139960;23;20177;-85
2023/12/25 12:01:17;;;;;;;0.80;0.80;;;17.00;53.90;;;;;;6139426;23;20536;-85
2023/12/25 12:03:49;;;;;;;0.77;0.70;;;17.00;53.80;;;;;;6139030;23;20156;-86
2023/12/25 12:06:20;;;;;;;0.70;0.60;;;17.00;53.90;;;;;;6182939;23;20289;-85
2023/12/25 12:08:49;;;;;;;0.60;0.60;;;17.00;53.70;;;;;;6133465;23;20499;-84
2023/12/25 12:11:20;;;;;;;0.88;0.75;;;17.00;53.80;;;;;;6133802;23;20666;-86
2023/12/25 12:13:49;;;;;;;0.68;0.63;;;16.90;53.80;;;;;;6135820;23;20147;-85
2023/12/25 12:16:15;;;;;;;0.70;0.70;;;17.00;53.60;;;;;;6109737;23;20197;-84
2023/12/25 12:18:44;;;;;;;0.70;0.70;;;17.00;53.80;;;;;;6134719;23;20150;-85
2023/12/25 12:21:12;;;;;;;0.70;0.70;;;17.00;53.80;;;;;;6108151;23;20154;-85
2023/12/25 12:23:41;;;;;;;0.70;0.70;;;17.00;53.70;;;;;;6110345;23;20485;-85
2023/12/25 12:26:16;;;;;;;0.77;0.68;;;17.00;53.80;;;;;;6110860;23;20528;-85
2023/12/25 12:28:45;;;;;;;0.80;0.77;;;17.00;53.80;;;;;;6135555;23;20279;-85
2023/12/25 12:31:14;;;;;;;0.60;0.60;;;17.00;53.60;;;;;;6159559;23;20661;-85
2023/12/25 12:33:44;;;;;;;0.57;0.57;;;17.10;53.50;;;;;;6159553;23;20230;-85
2023/12/25 12:36:15;;;;;;;0.63;0.60;;;17.10;53.60;;;;;;6134116;23;20246;-85
2023/12/25 12:38:46;;;;;;;0.52;0.50;;;17.10;53.60;;;;;;6158142;23;20155;-85
2023/12/25 12:41:19;;;;;;;0.90;0.82;;;17.10;53.60;;;;;;6134513;23;20159;-85
2023/12/25 12:43:49;;;;;;;0.52;0.52;;;17.10;53.50;;;;;;6135895;23;20155;-85
2023/12/25 12:46:15;;;;;;;0.60;0.60;;;17.00;53.70;;;;;;6134214;23;20158;-85
2023/12/25 12:51:13;;;;;;;0.68;0.63;;;17.00;53.70;;;;;;6215438;22;20213;-84
2023/12/25 12:53:42;;;;;;;0.52;0.50;;;17.00;53.70;;;;;;6114883;23;20153;-85
2023/12/25 12:56:12;;;;;;;0.73;0.70;;;17.00;53.60;;;;;;6115014;23;20597;-85
2023/12/25 12:58:41;;;;;;;0.70;0.70;;;17.10;53.40;;;;;;6139229;23;20154;-85
2023/12/25 13:01:07;;;;;;;0.60;0.60;;;17.10;53.60;;;;;;6139193;23;20158;-85
2023/12/25 13:03:37;;;;;;;0.70;0.65;;;17.20;53.80;;;;;;6139271;23;20249;-85
2023/12/25 13:06:03;;;;;;;0.50;0.50;;;17.10;53.70;;;;;;6111215;23;20593;-85
2023/12/25 13:08:31;;;;;;;0.75;0.70;;;17.10;53.50;;;;;;6106367;23;20160;-85
2023/12/25 13:10:58;;;;;;;0.60;0.60;;;17.00;53.60;;;;;;6105617;23;20156;-85
2023/12/25 13:13:27;;;;;;;0.65;0.65;;;17.10;53.50;;;;;;6129523;23;20187;-85
2023/12/25 13:15:53;;;;;;;0.60;0.60;;;17.10;53.60;;;;;;6104411;23;20198;-85